createdAt,value
2023-07-06T00:01:38.426Z,101300.44
2023-07-06T00:03:40.571Z,101306.66
2023-07-06T00:05:46.356Z,101296.13
2023-07-06T00:07:48.380Z,101301.41
2023-07-06T00:09:50.946Z,101300.56
2023-07-06T00:11:53.041Z,101296.22
2023-07-06T00:13:55.210Z,101297.88
2023-07-06T00:15:57.447Z,101299.59
2023-07-06T00:17:59.821Z,101294.41
2023-07-06T00:20:01.929Z,101306.59
2023-07-06T00:22:04.086Z,101297.97
2023-07-06T00:24:06.855Z,101304.03
2023-07-06T00:26:09.697Z,101302.34
2023-07-06T00:28:15.559Z,101304.06
2023-07-06T00:30:19.790Z,101299.59
2023-07-06T00:32:31.458Z,101304.00
2023-07-06T00:34:35.588Z,101307.41
2023-07-06T00:36:38.847Z,101305.72
2023-07-06T00:38:41.502Z,101304.00
2023-07-06T00:40:46.955Z,101308.31
2023-07-06T00:42:49.059Z,101308.25
2023-07-06T00:44:56.097Z,101309.13
2023-07-06T00:46:58.173Z,101306.59
2023-07-06T00:49:02.778Z,101310.91
2023-07-06T00:51:10.956Z,101310.06
2023-07-06T00:53:18.016Z,101313.59
2023-07-06T00:55:29.057Z,101314.41
2023-07-06T00:57:33.996Z,101310.84
2023-07-06T00:59:40.405Z,101306.53
2023-07-06T01:01:46.738Z,101309.13
2023-07-06T01:03:53.766Z,101309.03
2023-07-06T01:06:01.523Z,101311.63
2023-07-06T01:08:09.255Z,101308.94
2023-07-06T01:10:11.244Z,101319.38
2023-07-06T01:12:13.826Z,101319.28
2023-07-06T01:14:16.064Z,101321.72
2023-07-06T01:16:29.812Z,101324.50
2023-07-06T01:18:38.175Z,101319.13
2023-07-06T01:20:47.616Z,101325.25
2023-07-06T01:23:08.694Z,101318.38
2023-07-06T01:25:22.044Z,101320.00
2023-07-06T01:27:43.748Z,101320.06
2023-07-06T01:30:04.830Z,101327.84
2023-07-06T01:32:14.623Z,101331.25
2023-07-06T01:34:27.309Z,101327.84
2023-07-06T01:36:40.664Z,101329.56
2023-07-06T01:38:43.108Z,101326.06
2023-07-06T01:40:45.216Z,101330.34
2023-07-06T01:42:47.247Z,101324.34
2023-07-06T01:44:49.397Z,101323.53
2023-07-06T01:46:54.973Z,101326.09
2023-07-06T01:48:57.007Z,101319.09
2023-07-06T01:51:12.552Z,101321.78
2023-07-06T01:53:22.960Z,101323.53
2023-07-06T01:55:33.185Z,101312.25
2023-07-06T01:57:59.678Z,101305.31
2023-07-06T02:00:10.805Z,101312.22
2023-07-06T02:02:12.984Z,101299.22
2023-07-06T02:04:16.382Z,101300.94
2023-07-06T02:06:19.437Z,101306.03
2023-07-06T02:08:21.678Z,101302.53
2023-07-06T02:10:23.844Z,101300.72
2023-07-06T02:12:26.028Z,101301.66
2023-07-06T02:14:28.211Z,101299.03
2023-07-06T02:16:31.598Z,101296.41
2023-07-06T02:18:35.086Z,101299.00
2023-07-06T02:20:36.961Z,101304.06
2023-07-06T02:22:41.104Z,101286.88
2023-07-06T02:24:44.971Z,101302.34
2023-07-06T02:26:47.375Z,101292.97
2023-07-06T02:28:49.339Z,101295.44
2023-07-06T02:30:54.305Z,101298.97
2023-07-06T02:32:56.611Z,101297.22
2023-07-06T02:34:59.276Z,101297.88
2023-07-06T02:37:01.151Z,101300.63
2023-07-06T02:39:04.759Z,101310.13
2023-07-06T02:41:07.213Z,101307.47
2023-07-06T02:43:09.566Z,101302.09
2023-07-06T02:45:12.107Z,101303.69
2023-07-06T02:47:14.423Z,101298.47
2023-07-06T02:49:18.074Z,101303.59
2023-07-06T02:51:20.143Z,101303.66
2023-07-06T02:53:22.307Z,101306.31
2023-07-06T02:55:24.752Z,101302.09
2023-07-06T02:57:26.834Z,101308.97
2023-07-06T02:59:31.376Z,101312.94
2023-07-06T03:01:35.323Z,101312.31
2023-07-06T03:03:37.894Z,101317.06
2023-07-06T03:05:39.811Z,101313.03
2023-07-06T03:07:42.705Z,101318.00
2023-07-06T03:09:44.703Z,101318.00
2023-07-06T03:11:48.854Z,101315.47
2023-07-06T03:13:50.842Z,101317.38
2023-07-06T03:15:53.076Z,101319.72
2023-07-06T03:17:55.298Z,101319.84
2023-07-06T03:19:57.814Z,101325.00
2023-07-06T03:22:00.427Z,101331.84
2023-07-06T03:24:02.699Z,101325.91
2023-07-06T03:26:04.756Z,101329.16
2023-07-06T03:28:06.661Z,101327.38
2023-07-06T03:30:11.587Z,101323.16
2023-07-06T03:32:13.641Z,101324.13
2023-07-06T03:34:15.537Z,101327.19
2023-07-06T03:36:18.288Z,101331.78
2023-07-06T03:38:21.843Z,101324.97
2023-07-06T03:40:25.961Z,101323.88
2023-07-06T03:42:27.920Z,101322.13
2023-07-06T03:44:29.904Z,101325.47
2023-07-06T03:46:35.892Z,101322.78
2023-07-06T03:48:38.228Z,101325.56
2023-07-06T03:50:40.135Z,101319.50
2023-07-06T03:52:43.412Z,101331.56
2023-07-06T03:54:47.436Z,101330.75
2023-07-06T03:56:49.967Z,101335.66
2023-07-06T03:58:52.870Z,101329.81
2023-07-06T04:00:57.678Z,101338.50
2023-07-06T04:03:05.561Z,101335.97
2023-07-06T04:05:09.984Z,101333.50
2023-07-06T04:07:12.129Z,101335.94
2023-07-06T04:09:14.338Z,101339.28
2023-07-06T04:11:16.196Z,101333.34
2023-07-06T04:13:18.426Z,101334.31
2023-07-06T04:15:22.320Z,101335.66
2023-07-06T04:17:24.406Z,101333.84
2023-07-06T04:19:26.643Z,101332.00
2023-07-06T04:21:29.660Z,101338.84
2023-07-06T04:23:31.730Z,101341.53
2023-07-06T04:25:35.613Z,101337.19
2023-07-06T04:27:37.597Z,101342.16
2023-07-06T04:29:39.589Z,101342.34
2023-07-06T04:31:41.997Z,101339.53
2023-07-06T04:33:47.523Z,101339.69
2023-07-06T04:35:54.616Z,101349.94
2023-07-06T04:37:56.688Z,101346.69
2023-07-06T04:39:58.857Z,101349.41
2023-07-06T04:42:00.808Z,101353.53
2023-07-06T04:44:02.922Z,101345.97
2023-07-06T04:46:05.218Z,101350.78
2023-07-06T04:48:08.613Z,101348.19
2023-07-06T04:50:13.372Z,101338.91
2023-07-06T04:52:15.788Z,101347.19
2023-07-06T04:54:18.426Z,101340.47
2023-07-06T04:56:20.550Z,101343.91
2023-07-06T04:58:22.471Z,101348.22
2023-07-06T05:00:30.000Z,101352.50
2023-07-06T05:02:33.899Z,101359.50
2023-07-06T05:04:36.474Z,101360.31
2023-07-06T05:06:38.461Z,101361.09
2023-07-06T05:08:44.789Z,101360.19
2023-07-06T05:10:52.328Z,101360.97
2023-07-06T05:12:57.335Z,101359.53
2023-07-06T05:14:59.240Z,101349.97
2023-07-06T05:17:02.308Z,101352.72
2023-07-06T05:19:04.457Z,101354.50
2023-07-06T05:21:06.372Z,101356.13
2023-07-06T05:23:09.507Z,101356.28
2023-07-06T05:25:12.066Z,101355.50
2023-07-06T05:27:14.010Z,101353.78
2023-07-06T05:29:16.049Z,101359.13
2023-07-06T05:31:18.131Z,101354.09
2023-07-06T05:33:20.115Z,101356.59
2023-07-06T05:35:24.734Z,101355.56
2023-07-06T05:37:35.405Z,101354.44
2023-07-06T05:39:38.456Z,101358.91
2023-07-06T05:41:40.551Z,101362.38
2023-07-06T05:43:42.474Z,101368.34
2023-07-06T05:45:47.727Z,101373.06
2023-07-06T05:47:49.840Z,101366.97
2023-07-06T05:49:51.855Z,101374.84
2023-07-06T05:51:53.997Z,101368.16
2023-07-06T05:53:56.069Z,101375.94
2023-07-06T05:55:58.273Z,101374.22
2023-07-06T05:58:00.676Z,101366.50
2023-07-06T06:00:03.289Z,101373.47
2023-07-06T06:02:05.926Z,101376.16
2023-07-06T06:04:09.120Z,101372.78
2023-07-06T06:06:12.390Z,101370.38
2023-07-06T06:08:14.336Z,101367.03
2023-07-06T06:10:16.562Z,101371.31
2023-07-06T06:12:20.497Z,101380.72
2023-07-06T06:14:22.779Z,101378.13
2023-07-06T06:16:24.709Z,101380.00
2023-07-06T06:18:29.839Z,101380.97
2023-07-06T06:20:32.212Z,101375.78
2023-07-06T06:22:35.228Z,101373.22
2023-07-06T06:24:37.388Z,101381.13
2023-07-06T06:26:44.196Z,101383.81
2023-07-06T06:28:46.453Z,101382.06
2023-07-06T06:30:48.489Z,101377.88
2023-07-06T06:32:50.536Z,101383.19
2023-07-06T06:34:53.859Z,101382.34
2023-07-06T06:36:57.157Z,101382.38
2023-07-06T06:38:59.435Z,101386.66
2023-07-06T06:41:09.180Z,101381.44
2023-07-06T06:43:11.179Z,101388.53
2023-07-06T06:45:13.362Z,101386.75
2023-07-06T06:47:15.499Z,101385.88
2023-07-06T06:49:18.483Z,101392.72
2023-07-06T06:51:20.563Z,101391.84
2023-07-06T06:53:22.647Z,101395.41
2023-07-06T06:55:24.723Z,101395.34
2023-07-06T06:57:26.801Z,101404.06
2023-07-06T06:59:28.902Z,101403.22
2023-07-06T07:01:33.047Z,101398.03
2023-07-06T07:03:36.059Z,101388.53
2023-07-06T07:05:38.151Z,101388.72
2023-07-06T07:07:40.478Z,101405.22
2023-07-06T07:09:43.069Z,101399.88
2023-07-06T07:11:45.230Z,101394.84
2023-07-06T07:13:48.765Z,101393.97
2023-07-06T07:15:51.651Z,101388.91
2023-07-06T07:17:56.985Z,101395.91
2023-07-06T07:19:59.267Z,101389.00
2023-07-06T07:22:03.785Z,101394.84
2023-07-06T07:24:06.797Z,101394.94
2023-07-06T07:26:10.826Z,101386.31
2023-07-06T07:28:13.148Z,101400.22
2023-07-06T07:30:15.257Z,101403.75
2023-07-06T07:32:22.312Z,101389.94
2023-07-06T07:34:24.473Z,101395.19
2023-07-06T07:36:27.328Z,101393.34
2023-07-06T07:38:30.476Z,101392.59
2023-07-06T07:40:33.872Z,101394.34
2023-07-06T07:42:36.115Z,101404.03
2023-07-06T07:44:39.630Z,101409.19
2023-07-06T07:46:41.737Z,101412.78
2023-07-06T07:48:46.810Z,101404.13
2023-07-06T07:50:52.084Z,101411.91
2023-07-06T07:52:54.160Z,101412.72
2023-07-06T07:54:56.301Z,101408.38
2023-07-06T07:56:59.013Z,101417.03
2023-07-06T07:59:01.493Z,101417.97
2023-07-06T08:01:06.935Z,101423.22
2023-07-06T08:03:09.875Z,101424.97
2023-07-06T08:05:12.092Z,101438.84
2023-07-06T08:07:14.328Z,101416.34
2023-07-06T08:09:16.389Z,101426.69
2023-07-06T08:11:21.971Z,101421.63
2023-07-06T08:13:24.386Z,101422.38
2023-07-06T08:15:26.571Z,101418.13
2023-07-06T08:17:28.904Z,101424.16
2023-07-06T08:19:44.261Z,101421.66
2023-07-06T08:22:09.107Z,101413.00
2023-07-06T08:24:11.923Z,101415.59
2023-07-06T08:26:13.901Z,101419.13
2023-07-06T08:28:16.094Z,101426.09
2023-07-06T08:30:18.384Z,101415.69
2023-07-06T08:32:23.712Z,101420.09
2023-07-06T08:34:28.456Z,101427.94
2023-07-06T08:36:31.475Z,101422.69
2023-07-06T08:38:34.183Z,101425.22
2023-07-06T08:40:37.188Z,101418.38
2023-07-06T08:42:39.270Z,101423.63
2023-07-06T08:44:41.332Z,101423.66
2023-07-06T08:46:50.234Z,101411.53
2023-07-06T08:48:55.273Z,101408.94
2023-07-06T08:51:10.413Z,101401.97
2023-07-06T08:53:16.043Z,101409.78
2023-07-06T08:55:18.998Z,101406.34
2023-07-06T08:57:24.698Z,101427.13
2023-07-06T08:59:45.710Z,101416.72
2023-07-06T09:01:48.544Z,101409.78
2023-07-06T09:03:57.073Z,101413.25
2023-07-06T09:05:59.600Z,101413.28
2023-07-06T09:08:01.808Z,101412.41
2023-07-06T09:10:24.118Z,101411.50
2023-07-06T09:12:34.241Z,101424.56
2023-07-06T09:14:36.406Z,101419.34
2023-07-06T09:16:48.978Z,101419.34
2023-07-06T09:18:54.669Z,101418.50
2023-07-06T09:20:59.647Z,101416.75
2023-07-06T09:23:07.577Z,101413.28
2023-07-06T09:25:20.949Z,101411.59
2023-07-06T09:27:28.867Z,101420.25
2023-07-06T09:29:36.219Z,101403.75
2023-07-06T09:31:39.740Z,101408.97
2023-07-06T09:33:51.216Z,101412.44
2023-07-06T09:35:58.234Z,101411.56
2023-07-06T09:38:00.580Z,101406.31
2023-07-06T09:40:05.240Z,101416.75
2023-07-06T09:42:13.844Z,101418.47
2023-07-06T09:44:26.362Z,101417.59
2023-07-06T09:46:33.837Z,101406.31
2023-07-06T09:48:39.354Z,101421.06
2023-07-06T09:50:46.306Z,101424.50
2023-07-06T09:52:49.435Z,101414.91
2023-07-06T09:54:58.000Z,101412.31
2023-07-06T09:57:01.938Z,101411.44
2023-07-06T09:59:05.362Z,101406.22
2023-07-06T10:01:18.832Z,101414.03
2023-07-06T10:03:33.902Z,101419.22
2023-07-06T10:05:51.462Z,101413.16
2023-07-06T10:08:07.413Z,101424.44
2023-07-06T10:10:26.664Z,101417.53
2023-07-06T10:12:45.660Z,101429.75
2023-07-06T10:14:50.983Z,101425.34
2023-07-06T10:17:12.264Z,101412.25
2023-07-06T10:19:21.885Z,101424.44
2023-07-06T10:21:29.664Z,101420.13
2023-07-06T10:23:42.916Z,101418.41
2023-07-06T10:26:08.383Z,101418.38
2023-07-06T10:28:20.052Z,101412.25
2023-07-06T10:30:37.392Z,101424.47
2023-07-06T10:32:45.514Z,101418.31
2023-07-06T10:34:49.390Z,101422.69
2023-07-06T10:36:52.560Z,101424.41
2023-07-06T10:38:55.644Z,101426.19
2023-07-06T10:41:22.551Z,101430.53
2023-07-06T10:43:25.206Z,101437.53
2023-07-06T10:45:37.569Z,101423.56
2023-07-06T10:47:42.488Z,101439.28
2023-07-06T10:50:13.881Z,101431.44
2023-07-06T10:52:16.529Z,101430.56
2023-07-06T10:54:29.592Z,101424.47
2023-07-06T10:56:47.348Z,101432.31
2023-07-06T10:58:56.955Z,101427.94
2023-07-06T11:01:01.674Z,101422.72
2023-07-06T11:03:05.524Z,101421.00
2023-07-06T11:05:17.329Z,101423.59
2023-07-06T11:07:39.796Z,101413.88
2023-07-06T11:10:09.257Z,101408.63
2023-07-06T11:12:21.397Z,101412.03
2023-07-06T11:14:34.527Z,101404.91
2023-07-06T11:16:56.922Z,101411.81
2023-07-06T11:18:59.893Z,101413.38
2023-07-06T11:21:14.443Z,101405.47
2023-07-06T11:23:22.436Z,101399.13
2023-07-06T11:25:29.683Z,101401.50
2023-07-06T11:27:36.185Z,101393.34
2023-07-06T11:29:39.381Z,101401.28
2023-07-06T11:31:50.140Z,101398.22
2023-07-06T11:34:05.092Z,101397.91
2023-07-06T11:36:17.602Z,101396.41
2023-07-06T11:38:23.148Z,101399.97
2023-07-06T11:40:35.325Z,101390.13
2023-07-06T11:42:50.987Z,101392.75
2023-07-06T11:44:56.262Z,101387.66
2023-07-06T11:47:09.361Z,101393.19
2023-07-06T11:49:22.023Z,101397.63
2023-07-06T11:51:25.051Z,101392.28
2023-07-06T11:53:36.567Z,101388.81
2023-07-06T11:55:48.558Z,101391.28
2023-07-06T11:58:06.387Z,101378.00
2023-07-06T12:00:24.057Z,101387.66
2023-07-06T12:02:28.750Z,101385.41
2023-07-06T12:04:31.348Z,101405.53
2023-07-06T12:06:33.418Z,101388.31
2023-07-06T12:08:38.448Z,101376.97
2023-07-06T12:10:41.059Z,101387.44
2023-07-06T12:12:47.128Z,101380.59
2023-07-06T12:14:53.064Z,101388.34
2023-07-06T12:16:56.412Z,101372.41
2023-07-06T12:19:04.815Z,101372.78
2023-07-06T12:21:13.987Z,101375.16
2023-07-06T12:23:16.207Z,101373.38
2023-07-06T12:25:20.426Z,101366.78
2023-07-06T12:27:22.818Z,101364.78
2023-07-06T12:29:28.620Z,101364.38
2023-07-06T12:31:32.301Z,101357.28
2023-07-06T12:33:35.776Z,101364.88
2023-07-06T12:35:39.324Z,101368.13
2023-07-06T12:37:44.675Z,101356.13
2023-07-06T12:39:49.231Z,101354.91
2023-07-06T12:41:53.065Z,101352.66
2023-07-06T12:43:55.282Z,101349.13
2023-07-06T12:46:00.307Z,101343.97
2023-07-06T12:48:06.436Z,101348.06
2023-07-06T12:50:17.898Z,101344.91
2023-07-06T12:52:24.895Z,101343.63
2023-07-06T12:54:31.137Z,101353.09
2023-07-06T12:56:33.351Z,101332.03
2023-07-06T12:58:38.007Z,101342.50
2023-07-06T13:00:40.083Z,101330.88
2023-07-06T13:02:43.805Z,101348.94
2023-07-06T13:04:49.264Z,101352.41
2023-07-06T13:06:54.139Z,101347.16
2023-07-06T13:09:00.587Z,101334.34
2023-07-06T13:11:06.198Z,101354.72
2023-07-06T13:13:18.656Z,101334.63
2023-07-06T13:15:25.444Z,101339.47
2023-07-06T13:17:28.543Z,101330.47
2023-07-06T13:19:34.619Z,101332.84
2023-07-06T13:21:38.521Z,101324.41
2023-07-06T13:23:40.856Z,101339.25
2023-07-06T13:25:46.496Z,101342.50
2023-07-06T13:27:49.970Z,101332.72
2023-07-06T13:29:52.036Z,101318.03
2023-07-06T13:31:55.605Z,101314.19
2023-07-06T13:33:58.944Z,101314.16
2023-07-06T13:36:00.997Z,101315.72
2023-07-06T13:38:05.621Z,101297.84
2023-07-06T13:40:13.732Z,101313.09
2023-07-06T13:42:22.853Z,101314.72
2023-07-06T13:44:25.817Z,101306.47
2023-07-06T13:46:28.787Z,101318.94
2023-07-06T13:48:31.111Z,101314.63
2023-07-06T13:50:33.488Z,101325.38
2023-07-06T13:52:35.769Z,101313.63
2023-07-06T13:54:37.876Z,101297.91
2023-07-06T13:56:43.972Z,101313.38
2023-07-06T13:58:46.359Z,101311.78
2023-07-06T14:00:49.018Z,101310.34
2023-07-06T14:02:52.543Z,101307.66
2023-07-06T14:04:54.843Z,101310.09
2023-07-06T14:06:57.703Z,101301.91
2023-07-06T14:08:59.919Z,101309.94
2023-07-06T14:11:02.778Z,101326.75
2023-07-06T14:13:05.175Z,101309.72
2023-07-06T14:15:10.673Z,101314.09
2023-07-06T14:17:12.816Z,101296.28
2023-07-06T14:19:15.443Z,101306.69
2023-07-06T14:21:24.124Z,101299.44
2023-07-06T14:23:27.839Z,101299.78
2023-07-06T14:25:30.561Z,101308.81
2023-07-06T14:27:33.028Z,101311.66
2023-07-06T14:29:35.269Z,101308.13
2023-07-06T14:31:39.202Z,101307.19
2023-07-06T14:33:41.544Z,101297.97
2023-07-06T14:35:44.900Z,101306.50
2023-07-06T14:37:48.331Z,101301.53
2023-07-06T14:39:50.462Z,101298.91
2023-07-06T14:41:52.553Z,101289.84
2023-07-06T14:43:54.644Z,101292.47
2023-07-06T14:45:57.760Z,101288.78
2023-07-06T14:48:01.605Z,101296.25
2023-07-06T14:50:07.082Z,101288.19
2023-07-06T14:52:09.411Z,101293.72
2023-07-06T14:54:11.630Z,101292.91
2023-07-06T14:56:14.139Z,101288.31
2023-07-06T14:58:16.260Z,101304.41
2023-07-06T15:00:19.419Z,101291.72
2023-07-06T15:02:22.905Z,101282.44
2023-07-06T15:04:25.010Z,101288.59
2023-07-06T15:06:27.259Z,101310.84
2023-07-06T15:08:29.233Z,101291.41
2023-07-06T15:10:31.920Z,101291.63
2023-07-06T15:12:34.307Z,101294.50
2023-07-06T15:14:37.043Z,101297.69
2023-07-06T15:16:39.172Z,101299.41
2023-07-06T15:18:41.415Z,101303.38
2023-07-06T15:20:44.550Z,101289.91
2023-07-06T15:22:46.662Z,101298.69
2023-07-06T15:24:49.016Z,101295.31
2023-07-06T15:26:51.468Z,101287.44
2023-07-06T15:28:53.711Z,101282.72
2023-07-06T15:30:55.701Z,101274.38
2023-07-06T15:32:59.122Z,101280.28
2023-07-06T15:35:02.712Z,101286.94
2023-07-06T15:37:05.238Z,101282.09
2023-07-06T15:39:07.935Z,101281.78
2023-07-06T15:41:10.480Z,101300.19
2023-07-06T15:43:13.668Z,101291.75
2023-07-06T15:45:16.100Z,101277.41
2023-07-06T15:47:18.493Z,101276.47
2023-07-06T15:49:22.027Z,101299.91
2023-07-06T15:51:24.730Z,101283.31
2023-07-06T15:53:28.519Z,101283.31
2023-07-06T15:55:30.844Z,101280.66
2023-07-06T15:57:33.006Z,101286.56
2023-07-06T15:59:35.131Z,101284.25
2023-07-06T16:01:39.050Z,101283.53
2023-07-06T16:03:41.849Z,101315.81
2023-07-06T16:05:45.456Z,101288.84
2023-07-06T16:07:48.906Z,101283.97
2023-07-06T16:09:51.581Z,101290.31
2023-07-06T16:11:53.837Z,101292.19
2023-07-06T16:14:10.397Z,101288.28
2023-07-06T16:16:18.343Z,101289.38
2023-07-06T16:18:20.460Z,101302.81
2023-07-06T16:20:22.769Z,101282.13
2023-07-06T16:22:25.097Z,101282.66
2023-07-06T16:24:27.461Z,101281.94
2023-07-06T16:26:29.690Z,101288.59
2023-07-06T16:28:31.991Z,101287.72
2023-07-06T16:30:34.437Z,101292.47
2023-07-06T16:32:36.818Z,101294.56
2023-07-06T16:34:39.139Z,101278.38
2023-07-06T16:36:41.419Z,101284.94
2023-07-06T16:38:46.572Z,101277.31
2023-07-06T16:40:48.818Z,101284.31
2023-07-06T16:42:50.971Z,101287.00
2023-07-06T16:44:53.888Z,101291.44
2023-07-06T16:46:56.347Z,101294.09
2023-07-06T16:48:59.306Z,101289.44
2023-07-06T16:51:04.013Z,101295.41
2023-07-06T16:53:06.367Z,101296.50
2023-07-06T16:55:09.081Z,101310.75
2023-07-06T16:57:11.328Z,101293.75
2023-07-06T16:59:13.809Z,101293.78
2023-07-06T17:01:16.601Z,101295.56
2023-07-06T17:03:20.640Z,101287.69
2023-07-06T17:05:25.194Z,101289.22
2023-07-06T17:07:27.623Z,101285.63
2023-07-06T17:09:32.109Z,101287.84
2023-07-06T17:11:34.432Z,101285.22
2023-07-06T17:13:38.497Z,101282.97
2023-07-06T17:15:40.922Z,101288.53
2023-07-06T17:17:43.496Z,101292.19
2023-07-06T17:19:47.109Z,101296.59
2023-07-06T17:21:49.380Z,101285.84
2023-07-06T17:23:51.937Z,101288.34
2023-07-06T17:25:54.171Z,101292.53
2023-07-06T17:27:56.508Z,101296.72
2023-07-06T17:29:58.968Z,101289.66
2023-07-06T17:32:03.320Z,101291.47
2023-07-06T17:34:05.923Z,101294.25
2023-07-06T17:36:09.323Z,101297.44
2023-07-06T17:38:12.290Z,101298.91
2023-07-06T17:40:14.948Z,101287.13
2023-07-06T17:42:17.367Z,101282.16
2023-07-06T17:44:20.218Z,101276.81
2023-07-06T17:46:22.521Z,101295.16
2023-07-06T17:48:26.483Z,101297.72
2023-07-06T17:50:28.766Z,101281.88
2023-07-06T17:52:30.961Z,101296.78
2023-07-06T17:54:33.124Z,101291.44
2023-07-06T17:56:35.474Z,101293.50
2023-07-06T17:58:38.007Z,101300.38
2023-07-06T18:00:40.235Z,101293.63
2023-07-06T18:02:42.531Z,101299.44
2023-07-06T18:04:44.635Z,101293.66
2023-07-06T18:06:46.789Z,101300.06
2023-07-06T18:08:49.022Z,101297.34
2023-07-06T18:10:51.280Z,101304.56
2023-07-06T18:12:54.902Z,101316.81
2023-07-06T18:14:57.052Z,101301.81
2023-07-06T18:17:01.213Z,101299.28
2023-07-06T18:19:03.331Z,101301.81
2023-07-06T18:21:06.297Z,101310.41
2023-07-06T18:23:09.186Z,101305.25
2023-07-06T18:25:13.196Z,101305.06
2023-07-06T18:27:15.371Z,101308.97
2023-07-06T18:29:17.530Z,101305.53
2023-07-06T18:31:19.716Z,101309.81
2023-07-06T18:33:21.816Z,101312.78
2023-07-06T18:35:24.108Z,101315.00
2023-07-06T18:37:26.406Z,101315.06
2023-07-06T18:39:28.695Z,101319.47
2023-07-06T18:41:30.924Z,101316.16
2023-07-06T18:43:33.194Z,101323.91
2023-07-06T18:45:42.192Z,101325.91
2023-07-06T18:47:44.971Z,101326.63
2023-07-06T18:49:50.162Z,101327.47
2023-07-06T18:51:52.570Z,101319.56
2023-07-06T18:53:54.801Z,101327.59
2023-07-06T18:55:57.450Z,101321.56
2023-07-06T18:58:00.093Z,101327.72
2023-07-06T19:00:02.924Z,101325.97
2023-07-06T19:02:07.562Z,101330.66
2023-07-06T19:04:09.801Z,101312.16
2023-07-06T19:06:18.319Z,101312.13
2023-07-06T19:08:20.860Z,101315.53
2023-07-06T19:10:23.985Z,101327.03
2023-07-06T19:12:26.160Z,101331.44
2023-07-06T19:14:28.346Z,101319.06
2023-07-06T19:16:30.320Z,101321.81
2023-07-06T19:18:32.291Z,101318.22
2023-07-06T19:20:34.486Z,101327.72
2023-07-06T19:22:52.191Z,101315.47
2023-07-06T19:24:54.341Z,101322.56
2023-07-06T19:26:56.530Z,101317.38
2023-07-06T19:28:58.592Z,101322.66
2023-07-06T19:31:01.116Z,101327.97
2023-07-06T19:33:04.003Z,101321.88
2023-07-06T19:35:06.621Z,101321.84
2023-07-06T19:37:08.805Z,101329.06
2023-07-06T19:39:10.958Z,101323.75
2023-07-06T19:41:13.450Z,101322.00
2023-07-06T19:43:15.609Z,101315.88
2023-07-06T19:45:18.168Z,101315.91
2023-07-06T19:47:20.473Z,101324.78
2023-07-06T19:49:23.055Z,101323.81
2023-07-06T19:51:25.506Z,101330.84
2023-07-06T19:53:27.597Z,101329.91
2023-07-06T19:55:30.729Z,101339.53
2023-07-06T19:57:43.179Z,101338.59
2023-07-06T19:59:46.901Z,101336.94
2023-07-06T20:01:49.227Z,101340.34
2023-07-06T20:03:51.320Z,101341.28
2023-07-06T20:05:59.631Z,101339.56
2023-07-06T20:08:01.899Z,101344.88
2023-07-06T20:10:06.045Z,101339.63
2023-07-06T20:12:08.529Z,101351.88
2023-07-06T20:14:10.645Z,101346.69
2023-07-06T20:16:13.413Z,101346.75
2023-07-06T20:18:16.830Z,101351.09
2023-07-06T20:20:18.953Z,101355.50
2023-07-06T20:22:21.010Z,101357.22
2023-07-06T20:24:23.279Z,101357.28
2023-07-06T20:26:25.485Z,101358.19
2023-07-06T20:28:28.399Z,101358.22
2023-07-06T20:30:30.706Z,101367.78
2023-07-06T20:32:34.412Z,101369.56
2023-07-06T20:34:36.572Z,101365.19
2023-07-06T20:36:38.689Z,101374.84
2023-07-06T20:38:40.923Z,101376.56
2023-07-06T20:40:43.363Z,101367.84
2023-07-06T20:42:45.571Z,101371.31
2023-07-06T20:44:48.802Z,101373.91
2023-07-06T20:46:51.872Z,101376.56
2023-07-06T20:48:54.046Z,101377.44
2023-07-06T20:50:56.459Z,101378.31
2023-07-06T20:52:58.938Z,101373.13
2023-07-06T20:55:00.991Z,101379.25
2023-07-06T20:57:03.391Z,101382.72
2023-07-06T20:59:05.389Z,101381.88
2023-07-06T21:01:07.643Z,101381.00
2023-07-06T21:03:10.958Z,101388.84
2023-07-06T21:05:13.017Z,101387.94
2023-07-06T21:07:15.174Z,101382.75
2023-07-06T21:09:17.268Z,101383.59
2023-07-06T21:11:19.389Z,101378.41
2023-07-06T21:13:21.692Z,101387.09
2023-07-06T21:15:24.470Z,101381.94
2023-07-06T21:17:26.625Z,101382.78
2023-07-06T21:19:28.925Z,101381.91
2023-07-06T21:21:31.097Z,101384.53
2023-07-06T21:23:33.360Z,101385.44
2023-07-06T21:25:35.484Z,101381.06
2023-07-06T21:27:37.607Z,101383.66
2023-07-06T21:29:40.912Z,101393.28
2023-07-06T21:31:44.941Z,101401.97
2023-07-06T21:33:47.172Z,101395.84
2023-07-06T21:35:49.329Z,101406.31
2023-07-06T21:37:53.350Z,101401.09
2023-07-06T21:39:55.566Z,101401.94
2023-07-06T21:41:57.651Z,101401.09
2023-07-06T21:43:59.741Z,101398.50
2023-07-06T21:46:01.909Z,101404.56
2023-07-06T21:48:04.008Z,101406.28
2023-07-06T21:50:06.872Z,101404.56
2023-07-06T21:52:08.945Z,101406.28
2023-07-06T21:54:11.234Z,101405.44
2023-07-06T21:56:14.543Z,101413.31
2023-07-06T21:58:16.869Z,101409.81
2023-07-06T22:00:19.154Z,101409.84
2023-07-06T22:02:21.292Z,101414.19
2023-07-06T22:04:23.527Z,101419.41
2023-07-06T22:06:35.339Z,101412.44
2023-07-06T22:08:37.917Z,101416.78
2023-07-06T22:10:42.085Z,101419.38
2023-07-06T22:12:45.464Z,101415.88
2023-07-06T22:14:47.555Z,101416.78
2023-07-06T22:16:49.777Z,101419.41
2023-07-06T22:18:52.126Z,101421.09
2023-07-06T22:21:01.225Z,101420.22
2023-07-06T22:23:11.173Z,101416.78
2023-07-06T22:25:16.060Z,101416.75
2023-07-06T22:27:18.316Z,101410.69
2023-07-06T22:29:25.764Z,101414.19
2023-07-06T22:31:27.957Z,101413.28
2023-07-06T22:33:32.650Z,101418.47
2023-07-06T22:37:37.409Z,101416.78
2023-07-06T22:39:39.734Z,101416.75
2023-07-06T22:41:42.085Z,101412.41
2023-07-06T22:43:44.571Z,101424.56
2023-07-06T22:45:48.489Z,101422.84
2023-07-06T22:47:50.782Z,101421.97
2023-07-06T22:54:04.414Z,101422.81
2023-07-06T22:56:06.549Z,101425.41
2023-07-06T22:58:09.464Z,101429.75
2023-07-06T23:02:13.845Z,101423.69
2023-07-06T23:04:15.962Z,101430.63
2023-07-06T23:08:19.251Z,101437.59
2023-07-06T23:12:25.542Z,101440.09
2023-07-06T23:14:27.521Z,101424.53
2023-07-06T23:16:30.354Z,101427.94
2023-07-06T23:18:33.597Z,101429.66
2023-07-06T23:20:36.215Z,101421.00
2023-07-06T23:24:40.694Z,101422.75
2023-07-06T23:26:42.784Z,101424.50
2023-07-06T23:28:44.775Z,101430.53
2023-07-06T23:30:47.078Z,101423.59
2023-07-06T23:32:50.530Z,101421.88
2023-07-06T23:36:56.908Z,101420.13
2023-07-06T23:41:01.316Z,101426.19
2023-07-06T23:43:03.761Z,101428.81
2023-07-06T23:45:06.930Z,101424.44
2023-07-06T23:47:08.970Z,101423.63
2023-07-06T23:49:11.130Z,101418.41
2023-07-06T23:51:13.142Z,101427.91
2023-07-06T23:53:15.171Z,101427.97
2023-07-06T23:57:23.108Z,101432.25
2023-07-06T23:59:27.177Z,101427.94
